sensor_id;sensor_type;location;lat;lon;timestamp;P1;durP1;ratioP1;P2;durP2;ratioP2
61460;SDS011;47325;50.506;4.472;2023-04-29T00:01:58;6.80;;;5.20;;
61460;SDS011;47325;50.506;4.472;2023-04-29T00:07:48;7.60;;;5.60;;
61460;SDS011;47325;50.506;4.472;2023-04-29T00:13:34;7.80;;;5.80;;
61460;SDS011;47325;50.506;4.472;2023-04-29T00:19:27;8.00;;;5.90;;
61460;SDS011;47325;50.506;4.472;2023-04-29T00:25:12;7.80;;;6.30;;
61460;SDS011;47325;50.506;4.472;2023-04-29T00:30:58;10.80;;;6.60;;
61460;SDS011;47325;50.506;4.472;2023-04-29T00:36:59;10.80;;;7.30;;
61460;SDS011;47325;50.506;4.472;2023-04-29T00:42:46;11.30;;;7.50;;
61460;SDS011;47325;50.506;4.472;2023-04-29T00:48:32;12.00;;;7.80;;
61460;SDS011;47325;50.506;4.472;2023-04-29T00:54:20;11.70;;;7.90;;
61460;SDS011;47325;50.506;4.472;2023-04-29T01:00:13;10.90;;;7.90;;
61460;SDS011;47325;50.506;4.472;2023-04-29T01:06:06;10.90;;;7.50;;
61460;SDS011;47325;50.506;4.472;2023-04-29T01:11:58;13.20;;;8.50;;
61460;SDS011;47325;50.506;4.472;2023-04-29T01:17:58;13.60;;;8.50;;
61460;SDS011;47325;50.506;4.472;2023-04-29T01:23:44;14.60;;;9.10;;
61460;SDS011;47325;50.506;4.472;2023-04-29T01:29:31;15.50;;;9.60;;
61460;SDS011;47325;50.506;4.472;2023-04-29T01:35:25;15.20;;;9.20;;
61460;SDS011;47325;50.506;4.472;2023-04-29T01:41:13;14.40;;;9.50;;
61460;SDS011;47325;50.506;4.472;2023-04-29T01:47:05;16.90;;;10.00;;
61460;SDS011;47325;50.506;4.472;2023-04-29T01:53:00;17.10;;;11.10;;
61460;SDS011;47325;50.506;4.472;2023-04-29T01:59:02;17.60;;;10.50;;
61460;SDS011;47325;50.506;4.472;2023-04-29T02:04:52;17.10;;;10.30;;
61460;SDS011;47325;50.506;4.472;2023-04-29T02:10:46;18.30;;;11.20;;
61460;SDS011;47325;50.506;4.472;2023-04-29T02:16:34;16.40;;;10.70;;
61460;SDS011;47325;50.506;4.472;2023-04-29T02:22:30;20.30;;;11.70;;
61460;SDS011;47325;50.506;4.472;2023-04-29T02:28:25;19.50;;;11.80;;
61460;SDS011;47325;50.506;4.472;2023-04-29T02:34:11;19.50;;;11.60;;
61460;SDS011;47325;50.506;4.472;2023-04-29T02:39:56;19.30;;;11.90;;
61460;SDS011;47325;50.506;4.472;2023-04-29T02:45:43;20.60;;;11.80;;
61460;SDS011;47325;50.506;4.472;2023-04-29T02:51:35;21.10;;;12.10;;
61460;SDS011;47325;50.506;4.472;2023-04-29T02:57:21;20.70;;;12.40;;
61460;SDS011;47325;50.506;4.472;2023-04-29T03:03:12;21.00;;;12.10;;
61460;SDS011;47325;50.506;4.472;2023-04-29T03:08:59;21.50;;;12.90;;
61460;SDS011;47325;50.506;4.472;2023-04-29T03:14:54;27.00;;;13.50;;
61460;SDS011;47325;50.506;4.472;2023-04-29T03:20:50;28.10;;;14.40;;
61460;SDS011;47325;50.506;4.472;2023-04-29T03:26:37;26.70;;;14.20;;
61460;SDS011;47325;50.506;4.472;2023-04-29T03:32:23;28.50;;;14.50;;
61460;SDS011;47325;50.506;4.472;2023-04-29T03:38:11;30.10;;;15.20;;
61460;SDS011;47325;50.506;4.472;2023-04-29T03:44:09;32.30;;;16.40;;
61460;SDS011;47325;50.506;4.472;2023-04-29T03:50:01;29.90;;;15.40;;
61460;SDS011;47325;50.506;4.472;2023-04-29T03:55:52;31.60;;;16.60;;
61460;SDS011;47325;50.506;4.472;2023-04-29T04:01:37;29.90;;;16.30;;
61460;SDS011;47325;50.506;4.472;2023-04-29T04:07:25;32.30;;;15.60;;
61460;SDS011;47325;50.506;4.472;2023-04-29T04:13:12;29.10;;;15.10;;
61460;SDS011;47325;50.506;4.472;2023-04-29T04:19:07;28.30;;;15.80;;
61460;SDS011;47325;50.506;4.472;2023-04-29T04:25:12;28.50;;;15.00;;
61460;SDS011;47325;50.506;4.472;2023-04-29T04:30:58;25.40;;;14.60;;
61460;SDS011;47325;50.506;4.472;2023-04-29T04:36:54;26.70;;;15.00;;
61460;SDS011;47325;50.506;4.472;2023-04-29T04:42:43;25.40;;;14.00;;
61460;SDS011;47325;50.506;4.472;2023-04-29T04:48:35;25.20;;;14.40;;
61460;SDS011;47325;50.506;4.472;2023-04-29T04:54:23;24.20;;;14.10;;
61460;SDS011;47325;50.506;4.472;2023-04-29T05:00:18;23.80;;;13.50;;
61460;SDS011;47325;50.506;4.472;2023-04-29T05:06:08;22.00;;;12.50;;
61460;SDS011;47325;50.506;4.472;2023-04-29T05:11:57;20.20;;;12.30;;
61460;SDS011;47325;50.506;4.472;2023-04-29T05:17:49;20.10;;;12.10;;
61460;SDS011;47325;50.506;4.472;2023-04-29T05:23:37;19.40;;;11.60;;
61460;SDS011;47325;50.506;4.472;2023-04-29T05:29:25;20.60;;;11.40;;
61460;SDS011;47325;50.506;4.472;2023-04-29T05:35:16;18.70;;;10.80;;
61460;SDS011;47325;50.506;4.472;2023-04-29T05:41:10;18.80;;;10.60;;
61460;SDS011;47325;50.506;4.472;2023-04-29T05:47:05;17.90;;;10.70;;
61460;SDS011;47325;50.506;4.472;2023-04-29T05:52:51;18.50;;;10.30;;
61460;SDS011;47325;50.506;4.472;2023-04-29T05:58:37;15.00;;;9.20;;
61460;SDS011;47325;50.506;4.472;2023-04-29T06:04:23;16.00;;;9.70;;
61460;SDS011;47325;50.506;4.472;2023-04-29T06:10:16;16.00;;;9.00;;
61460;SDS011;47325;50.506;4.472;2023-04-29T06:16:10;13.40;;;8.70;;
61460;SDS011;47325;50.506;4.472;2023-04-29T06:21:57;14.20;;;8.30;;
61460;SDS011;47325;50.506;4.472;2023-04-29T06:27:54;12.20;;;7.80;;
61460;SDS011;47325;50.506;4.472;2023-04-29T06:33:47;13.20;;;7.70;;
61460;SDS011;47325;50.506;4.472;2023-04-29T06:39:39;13.90;;;8.10;;
61460;SDS011;47325;50.506;4.472;2023-04-29T06:45:30;14.50;;;7.80;;
61460;SDS011;47325;50.506;4.472;2023-04-29T06:51:26;14.30;;;8.30;;
61460;SDS011;47325;50.506;4.472;2023-04-29T06:57:18;12.20;;;7.40;;
61460;SDS011;47325;50.506;4.472;2023-04-29T07:03:04;13.70;;;8.60;;
61460;SDS011;47325;50.506;4.472;2023-04-29T07:08:53;13.20;;;8.00;;
61460;SDS011;47325;50.506;4.472;2023-04-29T07:14:42;12.60;;;8.20;;
61460;SDS011;47325;50.506;4.472;2023-04-29T07:20:35;14.50;;;8.20;;
61460;SDS011;47325;50.506;4.472;2023-04-29T07:26:26;15.20;;;9.00;;
61460;SDS011;47325;50.506;4.472;2023-04-29T07:32:15;17.10;;;8.60;;
61460;SDS011;47325;50.506;4.472;2023-04-29T07:38:01;13.40;;;8.00;;
61460;SDS011;47325;50.506;4.472;2023-04-29T07:43:56;14.80;;;8.50;;
61460;SDS011;47325;50.506;4.472;2023-04-29T07:49:42;12.60;;;8.00;;
61460;SDS011;47325;50.506;4.472;2023-04-29T07:55:28;13.70;;;8.00;;
61460;SDS011;47325;50.506;4.472;2023-04-29T08:01:13;13.00;;;8.40;;
61460;SDS011;47325;50.506;4.472;2023-04-29T08:07:01;12.90;;;8.00;;
61460;SDS011;47325;50.506;4.472;2023-04-29T08:12:48;13.70;;;8.30;;
61460;SDS011;47325;50.506;4.472;2023-04-29T08:18:34;13.50;;;8.10;;
61460;SDS011;47325;50.506;4.472;2023-04-29T08:24:20;13.30;;;8.10;;
61460;SDS011;47325;50.506;4.472;2023-04-29T08:30:10;13.20;;;8.70;;
61460;SDS011;47325;50.506;4.472;2023-04-29T08:36:00;15.00;;;8.40;;
61460;SDS011;47325;50.506;4.472;2023-04-29T08:41:46;11.90;;;8.10;;
61460;SDS011;47325;50.506;4.472;2023-04-29T08:47:36;12.40;;;7.90;;
61460;SDS011;47325;50.506;4.472;2023-04-29T08:53:33;13.10;;;8.00;;
61460;SDS011;47325;50.506;4.472;2023-04-29T08:59:24;14.20;;;8.20;;
61460;SDS011;47325;50.506;4.472;2023-04-29T09:05:26;11.30;;;8.00;;
61460;SDS011;47325;50.506;4.472;2023-04-29T09:11:16;13.20;;;8.10;;
61460;SDS011;47325;50.506;4.472;2023-04-29T09:17:07;11.20;;;7.60;;
61460;SDS011;47325;50.506;4.472;2023-04-29T09:22:54;14.40;;;7.90;;
61460;SDS011;47325;50.506;4.472;2023-04-29T09:34:51;10.10;;;7.30;;
61460;SDS011;47325;50.506;4.472;2023-04-29T09:40:39;11.00;;;6.90;;
61460;SDS011;47325;50.506;4.472;2023-04-29T09:46:52;10.60;;;6.90;;
61460;SDS011;47325;50.506;4.472;2023-04-29T09:52:42;10.30;;;6.60;;
61460;SDS011;47325;50.506;4.472;2023-04-29T09:58:34;9.40;;;6.20;;
61460;SDS011;47325;50.506;4.472;2023-04-29T10:04:20;10.30;;;5.70;;
61460;SDS011;47325;50.506;4.472;2023-04-29T10:10:11;8.20;;;5.80;;
61460;SDS011;47325;50.506;4.472;2023-04-29T10:16:03;8.70;;;5.70;;
61460;SDS011;47325;50.506;4.472;2023-04-29T10:21:53;7.10;;;5.00;;
61460;SDS011;47325;50.506;4.472;2023-04-29T10:27:40;7.50;;;5.10;;
61460;SDS011;47325;50.506;4.472;2023-04-29T10:33:30;6.90;;;4.80;;
61460;SDS011;47325;50.506;4.472;2023-04-29T10:39:20;6.70;;;4.90;;
61460;SDS011;47325;50.506;4.472;2023-04-29T10:51:32;6.30;;;4.70;;
61460;SDS011;47325;50.506;4.472;2023-04-29T10:57:23;7.30;;;4.90;;
61460;SDS011;47325;50.506;4.472;2023-04-29T11:03:11;6.30;;;4.70;;
61460;SDS011;47325;50.506;4.472;2023-04-29T11:09:06;8.70;;;4.80;;
61460;SDS011;47325;50.506;4.472;2023-04-29T11:14:52;5.90;;;4.40;;
61460;SDS011;47325;50.506;4.472;2023-04-29T11:26:46;5.50;;;4.10;;
61460;SDS011;47325;50.506;4.472;2023-04-29T11:32:34;5.40;;;4.00;;
61460;SDS011;47325;50.506;4.472;2023-04-29T11:38:21;5.20;;;4.50;;
61460;SDS011;47325;50.506;4.472;2023-04-29T11:44:13;5.90;;;4.20;;
61460;SDS011;47325;50.506;4.472;2023-04-29T11:50:06;6.10;;;4.40;;
61460;SDS011;47325;50.506;4.472;2023-04-29T11:55:52;6.00;;;4.60;;
61460;SDS011;47325;50.506;4.472;2023-04-29T12:01:41;5.40;;;4.10;;
61460;SDS011;47325;50.506;4.472;2023-04-29T12:07:27;5.10;;;4.30;;
61460;SDS011;47325;50.506;4.472;2023-04-29T12:13:13;6.90;;;4.50;;
61460;SDS011;47325;50.506;4.472;2023-04-29T12:19:02;4.70;;;3.90;;
61460;SDS011;47325;50.506;4.472;2023-04-29T12:25:10;5.20;;;3.90;;
61460;SDS011;47325;50.506;4.472;2023-04-29T12:31:07;5.70;;;4.30;;
61460;SDS011;47325;50.506;4.472;2023-04-29T12:36:54;4.50;;;3.80;;
61460;SDS011;47325;50.506;4.472;2023-04-29T12:42:39;6.30;;;4.40;;
61460;SDS011;47325;50.506;4.472;2023-04-29T12:48:27;5.40;;;3.90;;
61460;SDS011;47325;50.506;4.472;2023-04-29T12:54:16;5.30;;;3.80;;
61460;SDS011;47325;50.506;4.472;2023-04-29T13:00:01;4.20;;;3.80;;
61460;SDS011;47325;50.506;4.472;2023-04-29T13:05:46;4.70;;;3.80;;
61460;SDS011;47325;50.506;4.472;2023-04-29T13:11:30;4.40;;;3.60;;
61460;SDS011;47325;50.506;4.472;2023-04-29T13:17:18;4.80;;;3.70;;
61460;SDS011;47325;50.506;4.472;2023-04-29T13:23:02;3.90;;;3.50;;
61460;SDS011;47325;50.506;4.472;2023-04-29T13:28:47;5.80;;;3.90;;
61460;SDS011;47325;50.506;4.472;2023-04-29T13:34:32;4.40;;;3.70;;
61460;SDS011;47325;50.506;4.472;2023-04-29T13:40:17;4.30;;;3.60;;
61460;SDS011;47325;50.506;4.472;2023-04-29T13:46:08;5.50;;;3.80;;
61460;SDS011;47325;50.506;4.472;2023-04-29T13:51:55;4.10;;;3.70;;
61460;SDS011;47325;50.506;4.472;2023-04-29T13:57:58;6.10;;;3.50;;
61460;SDS011;47325;50.506;4.472;2023-04-29T14:03:55;4.50;;;3.70;;
61460;SDS011;47325;50.506;4.472;2023-04-29T14:09:41;4.60;;;3.80;;
61460;SDS011;47325;50.506;4.472;2023-04-29T14:15:27;4.70;;;3.70;;
61460;SDS011;47325;50.506;4.472;2023-04-29T14:21:12;4.90;;;3.90;;
61460;SDS011;47325;50.506;4.472;2023-04-29T14:26:57;4.60;;;3.90;;
61460;SDS011;47325;50.506;4.472;2023-04-29T14:32:42;4.80;;;4.20;;
61460;SDS011;47325;50.506;4.472;2023-04-29T14:38:27;5.20;;;4.30;;
61460;SDS011;47325;50.506;4.472;2023-04-29T14:44:11;5.30;;;4.40;;
61460;SDS011;47325;50.506;4.472;2023-04-29T14:49:56;4.70;;;4.10;;
61460;SDS011;47325;50.506;4.472;2023-04-29T14:55:41;5.20;;;4.20;;
61460;SDS011;47325;50.506;4.472;2023-04-29T15:01:26;5.20;;;4.30;;
61460;SDS011;47325;50.506;4.472;2023-04-29T15:07:14;5.10;;;4.20;;
61460;SDS011;47325;50.506;4.472;2023-04-29T15:12:59;4.80;;;3.90;;
61460;SDS011;47325;50.506;4.472;2023-04-29T15:18:44;5.40;;;4.10;;
61460;SDS011;47325;50.506;4.472;2023-04-29T15:24:29;5.70;;;4.00;;
61460;SDS011;47325;50.506;4.472;2023-04-29T15:30:14;4.30;;;3.80;;
61460;SDS011;47325;50.506;4.472;2023-04-29T15:35:59;4.80;;;4.00;;
61460;SDS011;47325;50.506;4.472;2023-04-29T15:41:44;5.00;;;3.90;;
61460;SDS011;47325;50.506;4.472;2023-04-29T15:47:28;5.20;;;4.00;;
61460;SDS011;47325;50.506;4.472;2023-04-29T15:53:14;4.70;;;3.90;;
61460;SDS011;47325;50.506;4.472;2023-04-29T15:58:58;5.40;;;4.10;;
61460;SDS011;47325;50.506;4.472;2023-04-29T16:04:43;4.10;;;3.70;;
61460;SDS011;47325;50.506;4.472;2023-04-29T16:10:28;4.50;;;3.90;;
61460;SDS011;47325;50.506;4.472;2023-04-29T16:16:13;5.20;;;3.40;;
61460;SDS011;47325;50.506;4.472;2023-04-29T16:21:58;4.20;;;3.60;;
61460;SDS011;47325;50.506;4.472;2023-04-29T16:27:43;4.20;;;3.80;;
61460;SDS011;47325;50.506;4.472;2023-04-29T16:33:28;4.10;;;3.50;;
61460;SDS011;47325;50.506;4.472;2023-04-29T16:39:13;5.00;;;3.70;;
61460;SDS011;47325;50.506;4.472;2023-04-29T16:44:57;4.40;;;4.00;;
61460;SDS011;47325;50.506;4.472;2023-04-29T16:50:42;4.50;;;3.60;;
61460;SDS011;47325;50.506;4.472;2023-04-29T16:56:28;5.30;;;3.70;;
61460;SDS011;47325;50.506;4.472;2023-04-29T17:02:13;4.20;;;3.60;;
61460;SDS011;47325;50.506;4.472;2023-04-29T17:07:59;6.30;;;3.60;;
61460;SDS011;47325;50.506;4.472;2023-04-29T17:13:43;4.90;;;3.70;;
61460;SDS011;47325;50.506;4.472;2023-04-29T17:19:29;4.80;;;3.50;;
61460;SDS011;47325;50.506;4.472;2023-04-29T17:25:14;5.20;;;3.10;;
61460;SDS011;47325;50.506;4.472;2023-04-29T17:30:58;3.80;;;3.00;;
61460;SDS011;47325;50.506;4.472;2023-04-29T17:36:43;6.90;;;3.40;;
61460;SDS011;47325;50.506;4.472;2023-04-29T17:42:28;5.40;;;2.90;;
61460;SDS011;47325;50.506;4.472;2023-04-29T17:48:12;6.20;;;2.90;;
61460;SDS011;47325;50.506;4.472;2023-04-29T17:53:57;4.70;;;2.90;;
61460;SDS011;47325;50.506;4.472;2023-04-29T17:59:42;7.20;;;3.20;;
61460;SDS011;47325;50.506;4.472;2023-04-29T18:05:26;5.40;;;3.50;;
61460;SDS011;47325;50.506;4.472;2023-04-29T18:11:11;5.50;;;3.60;;
61460;SDS011;47325;50.506;4.472;2023-04-29T18:16:56;4.60;;;3.20;;
61460;SDS011;47325;50.506;4.472;2023-04-29T18:22:43;6.90;;;4.10;;
61460;SDS011;47325;50.506;4.472;2023-04-29T18:28:27;8.90;;;4.60;;
61460;SDS011;47325;50.506;4.472;2023-04-29T18:34:12;5.00;;;3.90;;
61460;SDS011;47325;50.506;4.472;2023-04-29T18:39:57;5.80;;;3.70;;
61460;SDS011;47325;50.506;4.472;2023-04-29T18:45:42;6.70;;;4.40;;
61460;SDS011;47325;50.506;4.472;2023-04-29T18:51:28;6.00;;;4.00;;
61460;SDS011;47325;50.506;4.472;2023-04-29T18:57:12;4.80;;;4.20;;
61460;SDS011;47325;50.506;4.472;2023-04-29T19:02:57;6.50;;;4.00;;
61460;SDS011;47325;50.506;4.472;2023-04-29T19:08:42;5.70;;;3.80;;
61460;SDS011;47325;50.506;4.472;2023-04-29T19:14:27;5.20;;;3.80;;
61460;SDS011;47325;50.506;4.472;2023-04-29T19:20:12;5.40;;;3.80;;
61460;SDS011;47325;50.506;4.472;2023-04-29T19:25:58;4.90;;;3.90;;
61460;SDS011;47325;50.506;4.472;2023-04-29T19:31:43;6.80;;;4.10;;
61460;SDS011;47325;50.506;4.472;2023-04-29T19:37:28;5.90;;;4.30;;
61460;SDS011;47325;50.506;4.472;2023-04-29T19:43:13;4.90;;;4.00;;
61460;SDS011;47325;50.506;4.472;2023-04-29T19:48:59;5.30;;;4.10;;
61460;SDS011;47325;50.506;4.472;2023-04-29T19:54:45;5.50;;;4.00;;
61460;SDS011;47325;50.506;4.472;2023-04-29T20:00:30;5.70;;;4.10;;
61460;SDS011;47325;50.506;4.472;2023-04-29T20:06:15;5.40;;;4.20;;
61460;SDS011;47325;50.506;4.472;2023-04-29T20:12:00;5.90;;;4.20;;
61460;SDS011;47325;50.506;4.472;2023-04-29T20:17:45;5.40;;;4.00;;
61460;SDS011;47325;50.506;4.472;2023-04-29T20:23:30;5.20;;;4.10;;
61460;SDS011;47325;50.506;4.472;2023-04-29T20:29:14;6.20;;;4.20;;
61460;SDS011;47325;50.506;4.472;2023-04-29T20:34:59;6.90;;;4.40;;
61460;SDS011;47325;50.506;4.472;2023-04-29T20:40:44;5.30;;;4.40;;
61460;SDS011;47325;50.506;4.472;2023-04-29T20:46:28;6.50;;;4.60;;
61460;SDS011;47325;50.506;4.472;2023-04-29T20:52:14;4.90;;;4.40;;
61460;SDS011;47325;50.506;4.472;2023-04-29T20:57:59;4.90;;;4.30;;
61460;SDS011;47325;50.506;4.472;2023-04-29T21:03:43;5.60;;;4.60;;
61460;SDS011;47325;50.506;4.472;2023-04-29T21:09:28;5.60;;;4.40;;
61460;SDS011;47325;50.506;4.472;2023-04-29T21:15:13;6.00;;;4.70;;
61460;SDS011;47325;50.506;4.472;2023-04-29T21:20:59;5.80;;;4.60;;
61460;SDS011;47325;50.506;4.472;2023-04-29T21:26:44;7.20;;;5.20;;
61460;SDS011;47325;50.506;4.472;2023-04-29T21:32:28;7.20;;;5.10;;
61460;SDS011;47325;50.506;4.472;2023-04-29T21:38:14;6.40;;;5.10;;
61460;SDS011;47325;50.506;4.472;2023-04-29T21:43:59;6.40;;;5.00;;
61460;SDS011;47325;50.506;4.472;2023-04-29T21:49:44;6.60;;;4.80;;
61460;SDS011;47325;50.506;4.472;2023-04-29T21:55:29;6.60;;;5.20;;
61460;SDS011;47325;50.506;4.472;2023-04-29T22:01:14;6.40;;;5.00;;
61460;SDS011;47325;50.506;4.472;2023-04-29T22:07:00;6.60;;;5.00;;
61460;SDS011;47325;50.506;4.472;2023-04-29T22:12:45;6.20;;;5.10;;
61460;SDS011;47325;50.506;4.472;2023-04-29T22:18:30;6.50;;;5.50;;
61460;SDS011;47325;50.506;4.472;2023-04-29T22:24:15;7.50;;;5.30;;
61460;SDS011;47325;50.506;4.472;2023-04-29T22:30:00;6.30;;;5.20;;
61460;SDS011;47325;50.506;4.472;2023-04-29T22:35:45;6.30;;;5.50;;
61460;SDS011;47325;50.506;4.472;2023-04-29T22:41:30;6.80;;;5.50;;
61460;SDS011;47325;50.506;4.472;2023-04-29T22:47:15;6.80;;;5.40;;
61460;SDS011;47325;50.506;4.472;2023-04-29T22:52:59;7.20;;;5.40;;
61460;SDS011;47325;50.506;4.472;2023-04-29T22:58:44;6.50;;;5.40;;
61460;SDS011;47325;50.506;4.472;2023-04-29T23:04:28;7.00;;;5.40;;
61460;SDS011;47325;50.506;4.472;2023-04-29T23:10:13;8.50;;;5.80;;
61460;SDS011;47325;50.506;4.472;2023-04-29T23:15:58;8.30;;;5.80;;
61460;SDS011;47325;50.506;4.472;2023-04-29T23:21:44;7.60;;;5.60;;
61460;SDS011;47325;50.506;4.472;2023-04-29T23:27:28;6.40;;;5.60;;
61460;SDS011;47325;50.506;4.472;2023-04-29T23:33:13;7.60;;;5.80;;
61460;SDS011;47325;50.506;4.472;2023-04-29T23:38:58;7.40;;;6.00;;
61460;SDS011;47325;50.506;4.472;2023-04-29T23:44:43;8.60;;;6.60;;
61460;SDS011;47325;50.506;4.472;2023-04-29T23:50:29;8.20;;;6.30;;
61460;SDS011;47325;50.506;4.472;2023-04-29T23:56:14;8.30;;;6.60;;
